Time;durP1;ratioP1;P1;durP2;ratioP2;P2;SDS_P1;SDS_P2;PMS_P1;PMS_P2;Temp;Humidity;BMP_temperature;BMP_pressure;BME280_temperature;BME280_humidity;BME280_pressure;Samples;Min_cycle;Max_cycle;Signal;HPM_P1;HPM_P2
2022/11/18 05:01:09;;;;;;;;;;;20.60;99.90;;;;;;5852697;23;19989;-79
2022/11/18 05:03:37;;;;;;;;;;;20.60;99.90;;;;;;4981518;28;20282;-80
2022/11/18 05:06:04;;;;;;;;;;;20.60;99.90;;;;;;4981421;28;19926;-84
2022/11/18 05:08:32;;;;;;;;;;;20.60;99.90;;;;;;4985611;28;19933;-82
2022/11/18 05:12:47;;;;;;;;;;;20.60;99.90;;;;;;4987558;28;20364;-84
2022/11/18 05:13:45;;;;;;;;;;;20.60;99.90;;;;;;4985766;28;19926;-83
2022/11/18 05:16:11;;;;;;;;;;;20.60;99.90;;;;;;4985967;28;19969;-84
2022/11/18 05:18:39;;;;;;;;;;;20.60;99.90;;;;;;4981051;28;19926;-81
2022/11/18 05:21:06;;;;;;;;;;;20.60;99.90;;;;;;4985380;28;19926;-83
2022/11/18 05:23:33;;;;;;;;;;;20.60;99.90;;;;;;4985495;28;19926;-83
2022/11/18 05:26:02;;;;;;;;;;;20.60;99.90;;;;;;4987364;28;19930;-83
2022/11/18 05:28:29;;;;;;;;;;;20.60;99.90;;;;;;4986821;28;19932;-83
2022/11/18 05:30:55;;;;;;;;;;;20.50;99.90;;;;;;4979844;28;19930;-84
2022/11/18 05:33:22;;;;;;;;;;;20.60;99.90;;;;;;4979200;28;20357;-82
2022/11/18 05:35:50;;;;;;;;;;;20.50;99.90;;;;;;4978233;28;19926;-85
2022/11/18 05:38:16;;;;;;;;;;;20.50;99.90;;;;;;4977109;28;19926;-85
2022/11/18 05:40:43;;;;;;;;;;;20.50;99.90;;;;;;4979928;28;19933;-83
2022/11/18 05:43:12;;;;;;;;;;;20.40;99.90;;;;;;4978764;28;20309;-84
2022/11/18 05:45:39;;;;;;;;;;;20.60;99.90;;;;;;4978169;28;19992;-84
2022/11/18 05:48:06;;;;;;;;;;;20.50;99.90;;;;;;4979325;28;20396;-84
2022/11/18 05:50:34;;;;;;;;;;;20.50;99.90;;;;;;4978390;28;19926;-84
2022/11/18 05:53:02;;;;;;;;;;;20.50;99.90;;;;;;4979482;28;19926;-84
2022/11/18 05:55:31;;;;;;;;;;;20.60;99.90;;;;;;4976815;28;20138;-82
2022/11/18 05:57:58;;;;;;;;;;;20.50;99.90;;;;;;4978036;28;19926;-81
2022/11/18 06:00:24;;;;;;;;;;;20.50;99.90;;;;;;4976755;28;19933;-81
2022/11/18 06:02:52;;;;;;;;;;;20.70;99.90;;;;;;4976183;28;20305;-82
2022/11/18 06:05:19;;;;;;;;;;;20.50;99.90;;;;;;4976552;28;19926;-82
2022/11/18 06:07:45;;;;;;;;;;;20.60;99.90;;;;;;4976999;28;19932;-83
2022/11/18 06:10:17;;;;;;;;;;;20.50;99.90;;;;;;4976458;28;20298;-82
2022/11/18 06:12:47;;;;;;;;;;;20.50;99.90;;;;;;4977717;28;19933;-83
2022/11/18 06:15:16;;;;;;;;;;;20.60;99.90;;;;;;4976361;28;20374;-83
2022/11/18 06:17:45;;;;;;;;;;;19.80;99.80;;;;;;4977626;28;19926;-82
2022/11/18 06:20:12;;;;;;;;;;;20.70;99.90;;;;;;4977840;28;19933;-81
2022/11/18 06:22:38;;;;;;;;;;;20.50;99.60;;;;;;4979660;28;19927;-81
2022/11/18 06:25:05;;;;;;;;;;;20.50;99.30;;;;;;4978513;28;19948;-81
2022/11/18 06:27:33;;;;;;;;;;;20.50;99.10;;;;;;4977816;28;20259;-81
2022/11/18 06:30:00;;;;;;;;;;;20.50;98.80;;;;;;4977961;28;19926;-81
2022/11/18 06:32:27;;;;;;;;;;;20.50;98.60;;;;;;4977356;28;19926;-81
2022/11/18 06:34:53;;;;;;;;;;;20.50;98.30;;;;;;4977054;28;19926;-81
2022/11/18 06:37:20;;;;;;;;;;;20.50;98.00;;;;;;4976840;28;20386;-81
2022/11/18 06:39:46;;;;;;;;;;;20.40;97.90;;;;;;4976705;28;19981;-81
2022/11/18 06:43:37;;;;;;;;;;;20.50;97.80;;;;;;4976411;28;20285;-81
2022/11/18 06:45:01;;;;;;;;;;;20.50;97.60;;;;;;4976807;28;19976;-81
2022/11/18 06:47:27;;;;;;;;;;;20.50;97.30;;;;;;4976893;28;19992;-81
2022/11/18 06:49:54;;;;;;;;;;;20.30;97.00;;;;;;4976642;28;19926;-81
2022/11/18 06:52:21;;;;;;;;;;;20.40;96.90;;;;;;4976375;28;19926;-81
2022/11/18 06:54:48;;;;;;;;;;;20.50;96.80;;;;;;4977004;28;19926;-81
2022/11/18 06:57:14;;;;;;;;;;;20.60;96.60;;;;;;4976707;28;19933;-81
2022/11/18 06:59:41;;;;;;;;;;;20.50;96.40;;;;;;4976248;28;19926;-82
2022/11/18 07:02:09;;;;;;;;;;;20.50;96.20;;;;;;4976918;28;19926;-82
2022/11/18 07:04:38;;;;;;;;;;;20.50;96.10;;;;;;4979525;28;19926;-82
2022/11/18 07:07:05;;;;;;;;;;;20.40;95.90;;;;;;4980018;28;19926;-82
2022/11/18 07:09:31;;;;;;;;;;;20.40;95.70;;;;;;4979487;28;19932;-82
2022/11/18 07:11:58;;;;;;;;;;;20.60;95.60;;;;;;4976162;28;20400;-82
2022/11/18 07:14:24;;;;;;;;;;;20.50;95.50;;;;;;4976812;28;19933;-81
2022/11/18 07:16:51;;;;;;;;;;;20.40;95.40;;;;;;4977687;28;19926;-81
2022/11/18 07:19:19;;;;;;;;;;;20.10;95.00;;;;;;4978745;28;20373;-81
2022/11/18 07:21:45;;;;;;;;;;;20.40;95.00;;;;;;4978199;28;19949;-81
2022/11/18 07:24:13;;;;;;;;;;;20.40;94.90;;;;;;4977527;28;19933;-81
2022/11/18 07:26:39;;;;;;;;;;;20.40;94.70;;;;;;4978370;28;19930;-81
2022/11/18 07:29:06;;;;;;;;;;;20.40;94.60;;;;;;4982346;28;19926;-81
2022/11/18 07:31:34;;;;;;;;;;;20.40;94.40;;;;;;4980826;28;19926;-81
2022/11/18 07:34:00;;;;;;;;;;;20.40;94.30;;;;;;4981335;28;19932;-81
2022/11/18 07:36:29;;;;;;;;;;;20.50;94.20;;;;;;4981594;28;20353;-81
2022/11/18 07:38:59;;;;;;;;;;;20.30;94.00;;;;;;4983148;28;19936;-82
2022/11/18 07:41:27;;;;;;;;;;;20.40;93.90;;;;;;4980316;28;19934;-84
2022/11/18 07:43:54;;;;;;;;;;;20.30;93.80;;;;;;4978322;28;20382;-84
2022/11/18 07:46:22;;;;;;;;;;;20.50;94.00;;;;;;4978600;28;20309;-84
2022/11/18 07:48:49;;;;;;;;;;;20.50;93.90;;;;;;4978566;28;19934;-83
2022/11/18 07:51:17;;;;;;;;;;;20.80;94.00;;;;;;4978442;28;19933;-84
2022/11/18 07:53:45;;;;;;;;;;;20.50;93.80;;;;;;4978509;28;19926;-84
2022/11/18 07:56:12;;;;;;;;;;;20.50;93.70;;;;;;4978460;28;20289;-84
2022/11/18 10:54:45;;;;;;;;;;;20.40;89.30;;;;;;5584543;23;19930;-79
2022/11/18 10:57:15;;;;;;;;;;;20.30;89.30;;;;;;4975499;28;19926;-78
2022/11/18 10:59:46;;;;;;;;;;;20.30;89.20;;;;;;4975224;28;19926;-78
2022/11/18 11:02:16;;;;;;;;;;;20.30;89.60;;;;;;4974853;28;19926;-78
2022/11/18 11:04:43;;;;;;;;;;;20.30;89.20;;;;;;4975188;28;19933;-78
2022/11/18 11:07:17;;;;;;;;;;;20.30;89.20;;;;;;4974922;28;20393;-78
2022/11/18 11:09:45;;;;;;;;;;;20.30;89.20;;;;;;4975234;28;19926;-79
2022/11/18 11:12:13;;;;;;;;;;;20.30;89.20;;;;;;4975222;28;19948;-78
2022/11/18 11:14:44;;;;;;;;;;;20.30;89.30;;;;;;4974892;28;19926;-78
2022/11/18 11:17:12;;;;;;;;;;;20.30;89.30;;;;;;4975294;28;19926;-78
2022/11/18 11:19:47;;;;;;;;;;;20.30;89.30;;;;;;4975513;28;20033;-79
2022/11/18 11:22:14;;;;;;;;;;;20.30;89.40;;;;;;4975559;28;19926;-79
2022/11/18 11:24:41;;;;;;;;;;;20.30;89.40;;;;;;4977155;28;19932;-80
2022/11/18 11:27:14;;;;;;;;;;;20.30;90.00;;;;;;4978126;28;19996;-80
2022/11/18 11:29:57;;;;;;;;;;;20.30;89.40;;;;;;4977743;28;19926;-79
2022/11/18 11:32:27;;;;;;;;;;;20.30;89.50;;;;;;4977836;28;19926;-82
2022/11/18 11:34:59;;;;;;;;;;;20.30;89.50;;;;;;4975796;28;19926;-83
2022/11/18 11:37:29;;;;;;;;;;;20.30;89.50;;;;;;4976896;28;19926;-79
2022/11/18 11:40:10;;;;;;;;;;;20.30;89.60;;;;;;4975874;28;20390;-78
2022/11/18 11:42:43;;;;;;;;;;;20.30;89.70;;;;;;4975110;28;19933;-83
2022/11/18 11:45:18;;;;;;;;;;;20.30;90.00;;;;;;4977561;28;20382;-80
2022/11/18 11:47:49;;;;;;;;;;;20.30;90.00;;;;;;4977023;28;19932;-78
2022/11/18 11:50:19;;;;;;;;;;;20.30;90.10;;;;;;4976134;28;19927;-78
2022/11/18 11:52:49;;;;;;;;;;;20.40;90.10;;;;;;4975894;28;19926;-78
2022/11/18 11:55:21;;;;;;;;;;;20.40;90.20;;;;;;4976468;28;19933;-79
2022/11/18 11:58:01;;;;;;;;;;;20.40;90.30;;;;;;4976352;28;19930;-79
2022/11/18 12:00:29;;;;;;;;;;;20.40;90.50;;;;;;4976221;28;19933;-78
2022/11/18 12:03:00;;;;;;;;;;;20.40;90.20;;;;;;4976103;28;19930;-81
2022/11/18 12:05:33;;;;;;;;;;;20.30;89.10;;;;;;4976392;28;20412;-79
2022/11/18 12:08:00;;;;;;;;;;;20.30;89.30;;;;;;4980020;28;19935;-78
2022/11/18 12:10:29;;;;;;;;;;;20.20;89.10;;;;;;4979952;28;19926;-77
2022/11/18 12:13:07;;;;;;;;;;;20.20;88.80;;;;;;4978083;28;19936;-78
2022/11/18 12:15:39;;;;;;;;;;;20.20;88.40;;;;;;4980312;28;20035;-81
2022/11/18 12:18:11;;;;;;;;;;;20.10;87.90;;;;;;4990061;28;19926;-81
2022/11/18 12:20:43;;;;;;;;;;;20.10;87.60;;;;;;4989276;28;19926;-79
2022/11/18 12:23:14;;;;;;;;;;;20.00;86.40;;;;;;4982802;28;20412;-80
2022/11/18 12:25:52;;;;;;;;;;;20.00;85.70;;;;;;4981734;28;19933;-79
2022/11/18 12:28:24;;;;;;;;;;;19.90;85.20;;;;;;4984387;28;19930;-80
2022/11/18 12:30:51;;;;;;;;;;;19.90;85.10;;;;;;4982569;28;19927;-80
2022/11/18 12:33:18;;;;;;;;;;;19.90;85.10;;;;;;4983087;28;19926;-80
2022/11/18 12:35:47;;;;;;;;;;;19.90;84.80;;;;;;4982705;28;19926;-80
2022/11/18 12:38:27;;;;;;;;;;;20.00;84.50;;;;;;4982808;28;19933;-80
2022/11/18 12:40:53;;;;;;;;;;;20.00;84.20;;;;;;4979366;28;19926;-81
2022/11/18 12:43:47;;;;;;;;;;;20.00;83.80;;;;;;4989851;28;19933;-80
2022/11/18 12:46:38;;;;;;;;;;;20.00;83.50;;;;;;4985061;28;19922;-80
2022/11/18 12:49:19;;;;;;;;;;;20.00;83.20;;;;;;4965823;28;20286;-81
2022/11/18 12:51:47;;;;;;;;;;;20.00;83.10;;;;;;4980953;28;19942;-81
2022/11/18 12:54:27;;;;;;;;;;;20.00;83.10;;;;;;4981056;28;19927;-81
2022/11/18 12:56:54;;;;;;;;;;;20.10;83.20;;;;;;4980899;28;19926;-81
2022/11/18 12:59:28;;;;;;;;;;;20.20;83.20;;;;;;4982156;28;20293;-81
2022/11/18 13:02:02;;;;;;;;;;;20.20;83.20;;;;;;4980959;28;19932;-82
2022/11/18 13:04:28;;;;;;;;;;;20.20;83.20;;;;;;4981548;28;19926;-84
2022/11/18 13:06:59;;;;;;;;;;;20.30;83.20;;;;;;4982008;28;19933;-83
2022/11/18 13:09:26;;;;;;;;;;;20.30;83.20;;;;;;4981031;28;19957;-83
2022/11/18 13:11:54;;;;;;;;;;;20.30;83.00;;;;;;4980739;28;19933;-83
2022/11/18 13:20:18;;;;;;;;;;;20.30;83.40;;;;;;4979669;28;20309;-83
2022/11/18 13:25:34;;;;;;;;;;;20.40;84.10;;;;;;4978990;28;19958;-83
2022/11/18 13:28:06;;;;;;;;;;;20.50;84.50;;;;;;4982014;28;19933;-83
2022/11/18 13:30:33;;;;;;;;;;;20.50;84.80;;;;;;4985891;28;19926;-81
2022/11/18 13:33:01;;;;;;;;;;;20.60;85.10;;;;;;4985776;28;19985;-82
2022/11/18 13:35:28;;;;;;;;;;;20.60;85.30;;;;;;4984097;28;19926;-81
2022/11/18 13:37:57;;;;;;;;;;;20.70;85.70;;;;;;4984542;28;19933;-82
2022/11/18 13:40:26;;;;;;;;;;;20.70;85.90;;;;;;4984147;28;19948;-82
2022/11/18 13:42:53;;;;;;;;;;;20.70;85.90;;;;;;4983720;28;19926;-83
2022/11/18 13:45:20;;;;;;;;;;;20.80;86.00;;;;;;4983761;28;20012;-83
2022/11/18 13:47:48;;;;;;;;;;;20.80;86.10;;;;;;4985053;28;19926;-83
2022/11/18 13:50:19;;;;;;;;;;;20.90;86.50;;;;;;4984117;28;19927;-83
2022/11/18 13:52:49;;;;;;;;;;;20.90;86.70;;;;;;4983188;28;19926;-83
2022/11/18 13:55:20;;;;;;;;;;;21.00;86.90;;;;;;4985073;28;19926;-83
2022/11/18 13:57:49;;;;;;;;;;;21.00;86.90;;;;;;4984383;28;20290;-83
2022/11/18 14:00:21;;;;;;;;;;;21.00;86.90;;;;;;4984730;28;19926;-83
2022/11/18 14:02:53;;;;;;;;;;;21.00;86.80;;;;;;4983641;28;19926;-83
2022/11/18 14:05:20;;;;;;;;;;;21.00;86.80;;;;;;4983304;28;19972;-82
2022/11/18 14:08:00;;;;;;;;;;;21.00;86.70;;;;;;4982686;28;19964;-82
2022/11/18 14:10:39;;;;;;;;;;;21.00;86.70;;;;;;4982208;28;19926;-82
2022/11/18 14:13:16;;;;;;;;;;;21.00;86.50;;;;;;4982987;28;19981;-83
2022/11/18 14:15:43;;;;;;;;;;;21.00;86.50;;;;;;4983876;28;19969;-81
2022/11/18 14:18:16;;;;;;;;;;;21.10;86.40;;;;;;4984742;28;19926;-78
2022/11/18 14:20:49;;;;;;;;;;;21.00;86.30;;;;;;4983788;28;19934;-79
2022/11/18 14:23:16;;;;;;;;;;;21.00;86.30;;;;;;4982035;28;19949;-79
2022/11/18 14:25:45;;;;;;;;;;;21.00;86.30;;;;;;4981917;28;20025;-78
2022/11/18 14:28:13;;;;;;;;;;;21.00;86.30;;;;;;4981811;28;19933;-79
2022/11/18 14:30:41;;;;;;;;;;;21.00;86.30;;;;;;4981691;28;19933;-79
2022/11/18 14:33:16;;;;;;;;;;;21.00;86.30;;;;;;4982317;28;19961;-82
2022/11/18 14:35:44;;;;;;;;;;;21.00;86.30;;;;;;4982337;28;19950;-79
2022/11/18 14:38:15;;;;;;;;;;;21.00;86.30;;;;;;4980003;28;19930;-79
2022/11/18 14:40:42;;;;;;;;;;;21.00;86.30;;;;;;4981823;28;20262;-79
2022/11/18 14:43:12;;;;;;;;;;;21.00;86.30;;;;;;4981784;28;19933;-78
2022/11/18 14:45:39;;;;;;;;;;;20.90;86.20;;;;;;4980614;28;19926;-78
2022/11/18 14:48:06;;;;;;;;;;;21.00;86.30;;;;;;4980134;28;19981;-78
2022/11/18 14:50:33;;;;;;;;;;;21.00;86.30;;;;;;4977183;28;20408;-79
2022/11/18 14:52:59;;;;;;;;;;;21.00;86.40;;;;;;4976631;28;19977;-78
2022/11/18 14:55:26;;;;;;;;;;;21.00;86.60;;;;;;4977432;28;20393;-78
2022/11/18 14:57:53;;;;;;;;;;;21.00;87.00;;;;;;4975337;28;19949;-77
2022/11/18 15:00:21;;;;;;;;;;;21.00;87.40;;;;;;4974958;28;19981;-78
2022/11/18 15:02:48;;;;;;;;;;;21.00;87.70;;;;;;4975333;28;19926;-77
2022/11/18 15:05:14;;;;;;;;;;;21.10;88.00;;;;;;4975687;28;19942;-78
2022/11/18 15:07:41;;;;;;;;;;;21.10;88.10;;;;;;4977114;28;20294;-80
2022/11/18 15:10:10;;;;;;;;;;;21.10;88.20;;;;;;4976683;28;19926;-80
2022/11/18 15:12:36;;;;;;;;;;;21.10;88.50;;;;;;4976668;28;19949;-79
2022/11/18 15:15:03;;;;;;;;;;;21.20;88.90;;;;;;4977109;28;19933;-77
2022/11/18 15:17:31;;;;;;;;;;;21.20;88.80;;;;;;4978122;28;19934;-79
2022/11/18 15:19:58;;;;;;;;;;;21.20;88.70;;;;;;4977513;28;19932;-78
2022/11/18 15:22:25;;;;;;;;;;;21.20;88.80;;;;;;4979642;28;19998;-81
2022/11/18 15:24:51;;;;;;;;;;;21.20;88.70;;;;;;4976260;28;19930;-80
2022/11/18 15:27:18;;;;;;;;;;;21.10;88.50;;;;;;4976170;28;19926;-78
2022/11/18 15:29:45;;;;;;;;;;;21.10;88.40;;;;;;4978022;28;19932;-79
2022/11/18 15:32:11;;;;;;;;;;;21.10;88.40;;;;;;4977136;28;20013;-79
2022/11/18 15:34:39;;;;;;;;;;;21.10;88.30;;;;;;4976825;28;19926;-80
2022/11/18 15:37:06;;;;;;;;;;;21.10;88.30;;;;;;4976610;28;20274;-80
2022/11/18 15:39:32;;;;;;;;;;;21.10;88.20;;;;;;4976918;28;19957;-81
2022/11/18 15:41:59;;;;;;;;;;;21.10;88.20;;;;;;4977915;28;20305;-81
2022/11/18 15:44:25;;;;;;;;;;;21.10;88.20;;;;;;4980715;28;19927;-78
2022/11/18 15:46:52;;;;;;;;;;;21.00;88.10;;;;;;4979721;28;19937;-82
2022/11/18 15:49:20;;;;;;;;;;;21.00;88.10;;;;;;4981517;28;19932;-82
2022/11/18 15:51:48;;;;;;;;;;;21.00;88.30;;;;;;4982843;28;19926;-83
2022/11/18 15:54:15;;;;;;;;;;;21.00;88.00;;;;;;4984538;28;19926;-82
2022/11/18 15:56:42;;;;;;;;;;;21.00;88.20;;;;;;4991837;28;19973;-82
2022/11/18 15:59:10;;;;;;;;;;;21.00;88.20;;;;;;4990986;28;19910;-83
2022/11/18 16:01:37;;;;;;;;;;;21.00;88.40;;;;;;4989581;28;19970;-82
2022/11/18 16:04:04;;;;;;;;;;;21.00;88.50;;;;;;4984377;28;20267;-81
2022/11/18 16:06:31;;;;;;;;;;;21.00;88.70;;;;;;4983579;28;19932;-81
2022/11/18 16:08:59;;;;;;;;;;;21.00;89.00;;;;;;4982968;28;19933;-82
2022/11/18 16:14:11;;;;;;;;;;;21.10;89.70;;;;;;4978653;28;20293;-79
2022/11/18 16:16:38;;;;;;;;;;;21.10;89.90;;;;;;4978422;28;20338;-79
2022/11/18 16:19:06;;;;;;;;;;;21.10;90.00;;;;;;4978341;28;19929;-79
2022/11/18 16:21:33;;;;;;;;;;;21.10;90.00;;;;;;4978516;28;19926;-79
2022/11/18 16:24:02;;;;;;;;;;;21.30;90.00;;;;;;4978610;28;19926;-79
2022/11/18 16:26:30;;;;;;;;;;;21.10;89.90;;;;;;4978228;28;19961;-79
2022/11/18 16:28:56;;;;;;;;;;;21.10;89.80;;;;;;4978384;28;19927;-79
2022/11/18 16:31:42;;;;;;;;;;;21.10;89.70;;;;;;4978551;28;20378;-79
2022/11/18 16:34:10;;;;;;;;;;;21.00;89.50;;;;;;4977848;28;19926;-78
2022/11/18 16:36:37;;;;;;;;;;;21.00;89.40;;;;;;4978384;28;19926;-79
2022/11/18 16:39:06;;;;;;;;;;;21.00;89.30;;;;;;4977743;28;19969;-79
2022/11/18 16:41:33;;;;;;;;;;;21.30;89.50;;;;;;4978168;28;19926;-79
2022/11/18 16:44:02;;;;;;;;;;;21.00;89.10;;;;;;4977679;28;19933;-79
2022/11/18 16:46:29;;;;;;;;;;;20.90;88.80;;;;;;4977777;28;19933;-79
2022/11/18 16:48:56;;;;;;;;;;;20.90;88.70;;;;;;4977887;28;19930;-79
2022/11/18 16:51:24;;;;;;;;;;;20.90;88.50;;;;;;4977876;28;19926;-79
2022/11/18 16:53:53;;;;;;;;;;;20.90;88.40;;;;;;4976793;28;20196;-80
2022/11/18 16:56:22;;;;;;;;;;;20.90;88.40;;;;;;4978309;28;19926;-79
2022/11/18 16:58:49;;;;;;;;;;;20.90;88.40;;;;;;4978252;28;19926;-79
2022/11/18 17:01:16;;;;;;;;;;;20.90;88.50;;;;;;4978440;28;19926;-80
2022/11/18 17:03:43;;;;;;;;;;;20.90;88.50;;;;;;4979318;28;20342;-79
2022/11/18 17:06:10;;;;;;;;;;;20.90;88.60;;;;;;4979671;28;20341;-79
2022/11/18 17:08:37;;;;;;;;;;;20.90;88.70;;;;;;4979842;28;20408;-79
2022/11/18 17:11:04;;;;;;;;;;;20.90;88.60;;;;;;4978802;28;19926;-79
2022/11/18 17:13:32;;;;;;;;;;;20.90;88.60;;;;;;4978555;28;19926;-79
2022/11/18 17:16:03;;;;;;;;;;;20.90;88.60;;;;;;4979066;28;19969;-79
2022/11/18 17:18:29;;;;;;;;;;;20.90;88.40;;;;;;4978454;28;19926;-79
2022/11/18 17:20:58;;;;;;;;;;;20.90;88.40;;;;;;4978072;28;19930;-79
2022/11/18 17:23:27;;;;;;;;;;;20.90;88.30;;;;;;4977701;28;20341;-79
2022/11/18 17:25:54;;;;;;;;;;;20.90;88.10;;;;;;4977613;28;19926;-79
2022/11/18 17:28:21;;;;;;;;;;;20.90;88.00;;;;;;5001309;23;19926;-84
2022/11/18 17:30:49;;;;;;;;;;;20.80;87.80;;;;;;4977609;28;19973;-83
2022/11/18 17:33:16;;;;;;;;;;;20.90;87.80;;;;;;4977263;28;19930;-83
2022/11/18 17:35:43;;;;;;;;;;;20.90;87.70;;;;;;4976939;28;19930;-83
2022/11/18 17:38:10;;;;;;;;;;;20.90;87.90;;;;;;4977115;28;19926;-83
2022/11/18 17:40:36;;;;;;;;;;;20.80;87.50;;;;;;4977118;28;19934;-83
2022/11/18 17:43:05;;;;;;;;;;;20.90;87.50;;;;;;4977307;28;19932;-83
2022/11/18 17:45:33;;;;;;;;;;;20.80;87.30;;;;;;4984259;28;19926;-81
2022/11/18 17:48:01;;;;;;;;;;;20.80;87.20;;;;;;4988899;28;19927;-81
2022/11/18 17:50:28;;;;;;;;;;;20.80;87.10;;;;;;4989536;28;19926;-81
2022/11/18 17:52:55;;;;;;;;;;;20.80;87.10;;;;;;4984257;28;19977;-81
2022/11/18 17:55:22;;;;;;;;;;;20.80;87.20;;;;;;4977785;28;19926;-81
2022/11/18 17:57:49;;;;;;;;;;;20.90;87.50;;;;;;4978322;28;19926;-80
2022/11/18 18:00:17;;;;;;;;;;;20.90;87.60;;;;;;4977266;28;19926;-82
2022/11/18 18:02:44;;;;;;;;;;;20.90;87.90;;;;;;4977695;28;20301;-81
2022/11/18 18:05:12;;;;;;;;;;;20.90;88.00;;;;;;4978049;28;20018;-81
2022/11/18 18:07:41;;;;;;;;;;;20.90;88.10;;;;;;4977367;28;19934;-81
2022/11/18 18:10:08;;;;;;;;;;;21.00;88.40;;;;;;4977390;28;19980;-81
2022/11/18 18:15:19;;;;;;;;;;;21.00;88.60;;;;;;4977971;28;19952;-81
2022/11/18 18:17:47;;;;;;;;;;;21.00;88.60;;;;;;4977805;28;19930;-81
2022/11/18 18:20:15;;;;;;;;;;;21.00;88.70;;;;;;4977217;28;19977;-81
2022/11/18 18:22:42;;;;;;;;;;;21.00;88.80;;;;;;4977228;28;20016;-81
2022/11/18 18:25:10;;;;;;;;;;;21.00;88.80;;;;;;4977500;28;19930;-81
2022/11/18 18:27:37;;;;;;;;;;;21.00;88.90;;;;;;4977461;28;19926;-81
2022/11/18 18:30:04;;;;;;;;;;;21.00;88.90;;;;;;4977639;28;19926;-82
2022/11/18 18:32:31;;;;;;;;;;;21.00;89.00;;;;;;4976552;28;19949;-82
2022/11/18 18:34:59;;;;;;;;;;;21.00;89.10;;;;;;4975693;28;19926;-81
2022/11/18 18:37:28;;;;;;;;;;;21.00;89.10;;;;;;4975135;28;19972;-81
2022/11/18 18:39:55;;;;;;;;;;;21.00;89.10;;;;;;4975636;28;19934;-82
2022/11/18 18:42:22;;;;;;;;;;;21.00;89.20;;;;;;4975686;28;20385;-83
2022/11/18 18:47:34;;;;;;;;;;;21.00;89.30;;;;;;4975347;28;19945;-84
2022/11/18 18:50:01;;;;;;;;;;;21.00;89.20;;;;;;4975230;28;20409;-84
2022/11/18 18:52:30;;;;;;;;;;;21.00;89.10;;;;;;4975241;28;19926;-83
2022/11/18 18:54:57;;;;;;;;;;;21.00;89.10;;;;;;4975465;28;20084;-84
2022/11/18 18:57:24;;;;;;;;;;;20.90;89.10;;;;;;4975234;28;19926;-84
2022/11/18 18:59:51;;;;;;;;;;;20.90;89.20;;;;;;4975104;28;20016;-84
2022/11/18 19:02:18;;;;;;;;;;;20.90;89.30;;;;;;4975359;28;19926;-84
2022/11/18 19:04:46;;;;;;;;;;;21.00;89.60;;;;;;4976042;28;19957;-84
2022/11/18 19:07:12;;;;;;;;;;;21.00;89.80;;;;;;4975060;28;19926;-83
2022/11/18 19:09:41;;;;;;;;;;;21.00;89.90;;;;;;4975032;28;19929;-83
2022/11/18 19:14:53;;;;;;;;;;;21.00;90.00;;;;;;4975003;28;19932;-83
2022/11/18 19:17:20;;;;;;;;;;;21.00;90.00;;;;;;4975281;28;19961;-84
2022/11/18 19:22:40;;;;;;;;;;;21.00;90.10;;;;;;4951685;28;19922;-84
2022/11/18 19:25:09;;;;;;;;;;;21.00;90.00;;;;;;4979104;28;20276;-84
2022/11/18 19:27:38;;;;;;;;;;;21.00;90.00;;;;;;4978721;28;19926;-84
2022/11/18 19:30:06;;;;;;;;;;;20.90;90.00;;;;;;4978810;28;20377;-84
2022/11/18 19:32:35;;;;;;;;;;;20.90;89.90;;;;;;4978809;28;20385;-84
2022/11/18 19:35:02;;;;;;;;;;;20.90;89.80;;;;;;4978903;28;19969;-84
2022/11/18 19:37:30;;;;;;;;;;;20.90;89.80;;;;;;4978606;28;20005;-84
2022/11/18 19:39:57;;;;;;;;;;;20.90;89.70;;;;;;4978857;28;19926;-84
2022/11/18 19:42:26;;;;;;;;;;;20.90;89.70;;;;;;4978532;28;19949;-83
2022/11/18 19:44:53;;;;;;;;;;;20.90;89.60;;;;;;4979189;28;19934;-83
2022/11/18 19:47:20;;;;;;;;;;;20.90;89.60;;;;;;4979425;28;19930;-83
2022/11/18 19:49:47;;;;;;;;;;;20.80;89.40;;;;;;4979533;28;20420;-82
2022/11/18 19:52:14;;;;;;;;;;;20.80;89.40;;;;;;4979585;28;19966;-82
2022/11/18 19:54:41;;;;;;;;;;;20.80;89.40;;;;;;4979662;28;20025;-82
2022/11/18 19:57:08;;;;;;;;;;;20.80;89.50;;;;;;4979546;28;19926;-82
2022/11/18 19:59:36;;;;;;;;;;;20.80;89.50;;;;;;4979427;28;19926;-83
2022/11/18 20:02:03;;;;;;;;;;;20.80;89.80;;;;;;4979003;28;19972;-82
2022/11/18 20:04:30;;;;;;;;;;;20.80;89.90;;;;;;4978951;28;19930;-82
2022/11/18 20:06:57;;;;;;;;;;;20.80;90.00;;;;;;4978857;28;19926;-82
2022/11/18 20:09:24;;;;;;;;;;;20.90;90.10;;;;;;4978937;28;19926;-83
2022/11/18 20:11:51;;;;;;;;;;;20.90;90.50;;;;;;4979268;28;19970;-82
2022/11/18 20:14:18;;;;;;;;;;;20.90;90.20;;;;;;4979980;28;19989;-82
2022/11/18 20:16:47;;;;;;;;;;;20.90;90.20;;;;;;4980490;28;19925;-82
2022/11/18 20:19:16;;;;;;;;;;;20.90;90.20;;;;;;4984650;28;19926;-83
2022/11/18 20:21:43;;;;;;;;;;;20.90;90.20;;;;;;4983291;28;19925;-83
2022/11/18 20:24:11;;;;;;;;;;;20.90;90.20;;;;;;4982947;28;19937;-82
2022/11/18 20:26:38;;;;;;;;;;;20.90;90.20;;;;;;4982986;28;19926;-82
2022/11/18 20:29:06;;;;;;;;;;;20.90;90.20;;;;;;4982713;28;19926;-82
2022/11/18 20:31:33;;;;;;;;;;;20.90;90.20;;;;;;4982971;28;19969;-83
2022/11/18 20:34:02;;;;;;;;;;;20.90;90.20;;;;;;4981108;28;19937;-83
2022/11/18 20:36:30;;;;;;;;;;;20.90;90.10;;;;;;4978143;28;19932;-82
2022/11/18 20:38:57;;;;;;;;;;;20.80;90.10;;;;;;4979737;28;19926;-81
2022/11/18 20:41:25;;;;;;;;;;;20.80;90.10;;;;;;4980809;28;20297;-81
2022/11/18 20:43:51;;;;;;;;;;;20.80;90.10;;;;;;4979366;28;19926;-83
2022/11/18 20:46:19;;;;;;;;;;;20.90;90.10;;;;;;4978529;28;20061;-83
2022/11/18 20:48:45;;;;;;;;;;;21.00;90.20;;;;;;4978705;28;19926;-81
2022/11/18 20:51:15;;;;;;;;;;;20.80;90.20;;;;;;4978566;28;19926;-82
2022/11/18 20:53:42;;;;;;;;;;;20.80;90.20;;;;;;4978654;28;19933;-82
2022/11/18 20:56:09;;;;;;;;;;;20.80;90.30;;;;;;4979036;28;19926;-83
2022/11/18 20:58:36;;;;;;;;;;;20.80;90.30;;;;;;4979666;28;19933;-83
2022/11/18 21:01:09;;;;;;;;;;;20.80;90.70;;;;;;4978913;28;20401;-83
2022/11/18 21:03:35;;;;;;;;;;;20.90;90.50;;;;;;4980168;28;19925;-83
2022/11/18 21:06:05;;;;;;;;;;;20.90;90.60;;;;;;4980538;28;19926;-83
2022/11/18 21:08:33;;;;;;;;;;;20.90;90.70;;;;;;4980366;28;19933;-83
2022/11/18 21:11:00;;;;;;;;;;;20.80;90.70;;;;;;4980277;28;19926;-83
2022/11/18 21:16:11;;;;;;;;;;;20.90;90.80;;;;;;4979315;28;20478;-83
2022/11/18 21:18:38;;;;;;;;;;;20.90;90.80;;;;;;4978684;28;19968;-83
2022/11/18 21:23:52;;;;;;;;;;;20.90;90.80;;;;;;4980333;28;19929;-83
2022/11/18 21:26:19;;;;;;;;;;;20.90;90.80;;;;;;4981079;28;20412;-83
2022/11/18 21:28:46;;;;;;;;;;;20.90;90.80;;;;;;4980570;28;20262;-83
2022/11/18 21:31:13;;;;;;;;;;;20.90;90.80;;;;;;4980643;28;20309;-83
2022/11/18 21:33:40;;;;;;;;;;;20.90;90.80;;;;;;4982056;28;19926;-84
2022/11/18 21:36:07;;;;;;;;;;;20.90;90.80;;;;;;4982435;28;20400;-83
2022/11/18 21:38:33;;;;;;;;;;;20.90;90.80;;;;;;4979561;28;19926;-83
2022/11/18 21:41:03;;;;;;;;;;;20.90;90.80;;;;;;4979125;28;19926;-84
2022/11/18 21:43:30;;;;;;;;;;;20.70;90.70;;;;;;4978967;28;19972;-84
2022/11/18 21:45:59;;;;;;;;;;;20.80;90.70;;;;;;4979050;28;19926;-84
2022/11/18 21:48:26;;;;;;;;;;;20.60;90.70;;;;;;4978480;28;20294;-83
2022/11/18 21:50:52;;;;;;;;;;;20.60;90.80;;;;;;4978738;28;19930;-83
2022/11/18 21:53:19;;;;;;;;;;;20.80;90.90;;;;;;4978557;28;19926;-83
2022/11/18 21:55:46;;;;;;;;;;;20.80;90.90;;;;;;4978367;28;19929;-83
2022/11/18 21:58:14;;;;;;;;;;;20.90;91.10;;;;;;4978211;28;19926;-84
2022/11/18 22:00:41;;;;;;;;;;;20.80;91.10;;;;;;4978101;28;20041;-84
2022/11/18 22:03:07;;;;;;;;;;;20.80;91.30;;;;;;4977623;28;19926;-84
2022/11/18 22:05:34;;;;;;;;;;;21.30;91.60;;;;;;4977243;28;19926;-84
2022/11/18 22:08:01;;;;;;;;;;;20.90;91.50;;;;;;4977096;28;20025;-84
2022/11/18 22:10:27;;;;;;;;;;;20.90;91.70;;;;;;4979340;28;19930;-84
2022/11/18 22:12:54;;;;;;;;;;;20.60;91.60;;;;;;4977866;28;19926;-84
2022/11/18 22:15:23;;;;;;;;;;;20.90;91.80;;;;;;4977200;28;20406;-84
2022/11/18 22:17:50;;;;;;;;;;;20.90;91.90;;;;;;4976746;28;19926;-84
2022/11/18 22:20:16;;;;;;;;;;;20.90;92.00;;;;;;4976346;28;20437;-84
2022/11/18 22:22:43;;;;;;;;;;;20.90;92.00;;;;;;4976684;28;19926;-84
2022/11/18 22:25:09;;;;;;;;;;;20.90;92.10;;;;;;4976843;28;19926;-84
2022/11/18 22:27:36;;;;;;;;;;;20.90;92.20;;;;;;4976758;28;19926;-84
2022/11/18 22:30:03;;;;;;;;;;;20.90;92.20;;;;;;4976993;28;19995;-84
2022/11/18 22:32:31;;;;;;;;;;;20.90;92.30;;;;;;4977587;28;19934;-84
2022/11/18 22:34:57;;;;;;;;;;;20.90;92.30;;;;;;4977589;28;19926;-84
2022/11/18 22:37:24;;;;;;;;;;;20.90;92.40;;;;;;4977167;28;20374;-84
2022/11/18 22:39:50;;;;;;;;;;;21.10;92.50;;;;;;4976671;28;19948;-84
2022/11/18 22:45:01;;;;;;;;;;;20.90;92.50;;;;;;4977019;28;20397;-84
2022/11/18 22:47:27;;;;;;;;;;;20.90;92.50;;;;;;4977095;28;19926;-84
2022/11/18 22:49:55;;;;;;;;;;;20.90;92.50;;;;;;4977050;28;19926;-84